Time;durP1;ratioP1;P1;durP2;ratioP2;P2;SDS_P1;SDS_P2;PMS_P1;PMS_P2;Temp;Humidity;BMP_temperature;BMP_pressure;BME280_temperature;BME280_humidity;BME280_pressure;Samples;Min_cycle;Max_cycle;Signal;HPM_P1;HPM_P2
2023/05/16 03:02:00;;;;;;;12.97;11.53;;;8.90;99.90;;;;;;5235069;23;20241;-72
2023/05/16 03:04:26;;;;;;;12.10;11.07;;;8.90;99.90;;;;;;4987709;28;20655;-71
2023/05/16 03:06:52;;;;;;;13.40;12.13;;;8.90;99.90;;;;;;4986480;28;20189;-71
2023/05/16 03:09:18;;;;;;;13.37;12.27;;;9.00;99.90;;;;;;4993985;28;20243;-72
2023/05/16 03:11:44;;;;;;;13.50;12.20;;;9.00;99.90;;;;;;4995977;28;20685;-72
2023/05/16 03:14:11;;;;;;;12.00;11.00;;;9.10;99.90;;;;;;4995632;28;20180;-72
2023/05/16 03:16:37;;;;;;;13.37;12.27;;;9.10;99.90;;;;;;4995357;28;20275;-71
2023/05/16 03:19:04;;;;;;;14.77;13.37;;;9.20;99.90;;;;;;4994687;28;20481;-71
2023/05/16 03:21:30;;;;;;;20.80;19.20;;;9.20;99.90;;;;;;4995281;28;20200;-72
2023/05/16 03:23:57;;;;;;;38.53;36.30;;;9.30;99.90;;;;;;4994793;28;20691;-72
2023/05/16 03:26:23;;;;;;;16.70;15.47;;;9.20;99.90;;;;;;4994595;28;20199;-72
2023/05/16 03:28:50;;;;;;;12.77;11.60;;;9.30;99.90;;;;;;4993124;28;20231;-71
2023/05/16 03:31:16;;;;;;;12.50;11.30;;;9.30;99.90;;;;;;4994657;28;20204;-72
2023/05/16 03:33:42;;;;;;;19.40;17.63;;;9.40;99.90;;;;;;4993440;28;20185;-71
2023/05/16 03:36:08;;;;;;;13.43;12.33;;;9.50;99.90;;;;;;4993523;28;20173;-71
2023/05/16 03:38:34;;;;;;;12.17;10.80;;;9.60;99.90;;;;;;4993935;28;20189;-72
2023/05/16 03:41:00;;;;;;;13.27;12.07;;;9.60;99.90;;;;;;4994470;28;20254;-72
2023/05/16 03:43:26;;;;;;;12.47;11.27;;;9.70;99.90;;;;;;4993289;28;20212;-72
2023/05/16 03:45:52;;;;;;;18.10;16.63;;;9.80;99.90;;;;;;4993226;28;20180;-72
2023/05/16 03:48:18;;;;;;;21.73;20.00;;;9.90;99.90;;;;;;4992852;28;20359;-71
2023/05/16 03:50:44;;;;;;;11.27;10.27;;;9.90;99.90;;;;;;4994272;28;20196;-71
2023/05/16 03:53:11;;;;;;;12.47;11.37;;;9.90;99.90;;;;;;4992946;28;20229;-71
2023/05/16 03:55:36;;;;;;;13.93;12.73;;;9.90;99.90;;;;;;4994156;28;20176;-70
2023/05/16 03:58:02;;;;;;;17.33;15.90;;;9.90;99.90;;;;;;4993920;28;20188;-70
2023/05/16 04:00:28;;;;;;;17.73;16.43;;;10.00;99.90;;;;;;4993705;28;20204;-71
2023/05/16 04:02:54;;;;;;;14.60;13.27;;;10.00;99.90;;;;;;4993957;28;20211;-70
2023/05/16 04:05:20;;;;;;;17.00;15.80;;;10.00;99.90;;;;;;4992917;28;20184;-71
2023/05/16 04:07:46;;;;;;;17.10;15.83;;;10.00;99.90;;;;;;4993102;28;20239;-71
2023/05/16 04:10:11;;;;;;;15.33;14.03;;;10.00;99.90;;;;;;4993608;28;20184;-71
2023/05/16 04:12:37;;;;;;;13.93;12.83;;;10.00;99.90;;;;;;4993897;28;20187;-72
2023/05/16 04:15:04;;;;;;;14.90;13.70;;;9.90;99.90;;;;;;4989999;28;20176;-72
2023/05/16 04:17:30;;;;;;;13.63;12.53;;;9.90;99.90;;;;;;4989891;28;20195;-72
2023/05/16 04:19:56;;;;;;;17.80;16.30;;;9.90;99.90;;;;;;4994537;28;20662;-73
2023/05/16 04:22:22;;;;;;;16.03;14.43;;;9.90;99.90;;;;;;5004770;28;20632;-72
2023/05/16 04:24:48;;;;;;;14.60;13.17;;;10.00;99.90;;;;;;4992464;28;20278;-72
2023/05/16 04:27:14;;;;;;;11.70;10.70;;;10.00;99.90;;;;;;4992311;28;20859;-73
2023/05/16 04:29:39;;;;;;;12.47;11.47;;;10.10;99.90;;;;;;4987314;28;20177;-73
2023/05/16 04:32:06;;;;;;;17.47;16.07;;;10.10;99.90;;;;;;4988153;28;20212;-73
2023/05/16 04:34:33;;;;;;;17.10;15.60;;;10.30;99.90;;;;;;4991693;28;20192;-72
2023/05/16 04:36:59;;;;;;;15.53;14.20;;;10.30;99.90;;;;;;4992021;28;20544;-72
2023/05/16 04:39:24;;;;;;;15.60;14.30;;;10.40;99.90;;;;;;4992772;28;20275;-74
2023/05/16 04:41:51;;;;;;;15.63;14.17;;;10.50;99.90;;;;;;4992871;28;20206;-73
2023/05/16 04:44:16;;;;;;;17.20;15.70;;;10.70;99.90;;;;;;4993298;28;20187;-73
2023/05/16 04:46:42;;;;;;;18.20;16.73;;;10.70;99.90;;;;;;4993076;28;20188;-72
2023/05/16 04:49:10;;;;;;;19.37;17.83;;;10.90;99.90;;;;;;4992813;28;20303;-73
2023/05/16 04:51:35;;;;;;;15.13;13.93;;;11.00;99.90;;;;;;4992901;28;20560;-73
2023/05/16 04:54:01;;;;;;;15.30;12.30;;;11.10;99.90;;;;;;4992036;28;20242;-71
2023/05/16 04:56:27;;;;;;;13.47;12.37;;;11.10;99.90;;;;;;4991808;28;20267;-71
2023/05/16 04:58:53;;;;;;;13.43;12.23;;;11.10;99.90;;;;;;4992672;28;20210;-74
2023/05/16 05:01:19;;;;;;;12.47;11.37;;;11.10;99.90;;;;;;4991447;28;20283;-73
2023/05/16 05:03:45;;;;;;;16.37;14.97;;;11.20;99.90;;;;;;4992768;28;20796;-72
2023/05/16 05:06:10;;;;;;;26.50;24.57;;;11.20;99.90;;;;;;4992556;28;20197;-71
2023/05/16 05:08:36;;;;;;;28.23;26.13;;;11.20;99.90;;;;;;4991551;28;20208;-71
2023/05/16 05:11:02;;;;;;;14.80;13.50;;;11.20;99.90;;;;;;4992972;28;20257;-71
2023/05/16 05:13:28;;;;;;;13.17;11.97;;;11.10;99.90;;;;;;4991150;28;20642;-72
2023/05/16 05:15:54;;;;;;;17.67;11.83;;;11.10;99.90;;;;;;4992923;28;20180;-73
2023/05/16 05:18:20;;;;;;;13.47;11.17;;;11.10;99.90;;;;;;4992241;28;20636;-70
2023/05/16 05:20:45;;;;;;;14.27;13.03;;;11.20;99.90;;;;;;4992904;28;20560;-72
2023/05/16 05:23:11;;;;;;;16.30;15.00;;;11.40;99.90;;;;;;4992872;28;20184;-72
2023/05/16 05:25:37;;;;;;;36.17;33.43;;;11.60;99.90;;;;;;4991620;28;20192;-71
2023/05/16 05:28:03;;;;;;;11.27;10.17;;;11.80;99.90;;;;;;4991047;28;20592;-71
2023/05/16 05:30:29;;;;;;;14.60;11.43;;;11.90;99.90;;;;;;4992330;28;20200;-71
2023/05/16 05:32:55;;;;;;;27.47;25.27;;;12.00;99.90;;;;;;4991128;28;20271;-71
2023/05/16 05:35:21;;;;;;;52.47;49.37;;;12.10;99.90;;;;;;4991438;28;20177;-71
2023/05/16 05:37:46;;;;;;;84.67;79.90;;;12.30;99.90;;;;;;4992101;28;20172;-72
2023/05/16 05:40:12;;;;;;;65.20;61.40;;;12.40;99.90;;;;;;4992475;28;20211;-73
2023/05/16 05:42:38;;;;;;;33.90;31.77;;;12.40;99.90;;;;;;4992333;28;20177;-72
2023/05/16 05:45:04;;;;;;;15.53;13.63;;;12.60;99.90;;;;;;4992001;28;20187;-72
2023/05/16 05:47:30;;;;;;;12.43;11.13;;;12.70;99.90;;;;;;4991671;28;20783;-72
2023/05/16 05:49:58;;;;;;;13.50;12.20;;;12.80;99.90;;;;;;4992454;28;20267;-72
2023/05/16 05:52:23;;;;;;;16.00;14.17;;;12.90;99.90;;;;;;4992712;28;20290;-72
2023/05/16 05:54:49;;;;;;;18.13;16.33;;;13.10;99.90;;;;;;4992480;28;20601;-72
2023/05/16 05:57:15;;;;;;;23.97;22.07;;;13.20;99.90;;;;;;4991089;28;20180;-72
2023/05/16 05:59:41;;;;;;;41.30;37.93;;;13.10;99.90;;;;;;4993167;28;20176;-72
2023/05/16 06:02:07;;;;;;;49.00;45.17;;;13.20;99.90;;;;;;4991253;28;20212;-72
2023/05/16 06:04:33;;;;;;;40.57;36.90;;;13.30;99.90;;;;;;4993108;28;20191;-72
2023/05/16 06:06:58;;;;;;;75.73;69.00;;;13.40;99.90;;;;;;4992664;28;20184;-72
2023/05/16 06:09:24;;;;;;;51.27;45.87;;;13.40;99.90;;;;;;4992553;28;20687;-72
2023/05/16 06:11:50;;;;;;;55.00;48.23;;;13.40;99.90;;;;;;4992449;28;20242;-72
2023/05/16 06:14:16;;;;;;;44.73;39.97;;;13.50;99.90;;;;;;4990435;28;20190;-71
2023/05/16 06:16:42;;;;;;;42.97;39.27;;;13.50;99.90;;;;;;4991869;28;20181;-71
2023/05/16 06:19:08;;;;;;;40.60;37.10;;;13.40;99.90;;;;;;4991496;28;20283;-74
2023/05/16 06:21:34;;;;;;;41.63;38.13;;;13.50;99.90;;;;;;4992252;28;20258;-72
2023/05/16 06:24:00;;;;;;;42.80;39.13;;;13.50;99.90;;;;;;4990912;28;20192;-72
2023/05/16 06:26:26;;;;;;;40.43;37.10;;;13.60;99.90;;;;;;4992632;28;20195;-72
2023/05/16 06:28:51;;;;;;;37.63;34.37;;;13.50;99.90;;;;;;4990676;28;20206;-72
2023/05/16 06:31:17;;;;;;;32.77;29.67;;;13.50;99.90;;;;;;4991937;28;20684;-71
2023/05/16 06:33:43;;;;;;;31.17;28.10;;;13.40;99.90;;;;;;4991737;28;20271;-72
2023/05/16 06:36:09;;;;;;;31.23;28.30;;;13.50;99.90;;;;;;4990524;28;20184;-72
2023/05/16 06:38:35;;;;;;;32.00;29.17;;;13.60;99.90;;;;;;4990260;28;20649;-71
2023/05/16 06:41:00;;;;;;;35.83;32.43;;;13.60;99.90;;;;;;4990293;28;20343;-72
2023/05/16 06:43:26;;;;;;;37.40;34.03;;;13.70;99.90;;;;;;4991229;28;20212;-72
2023/05/16 06:45:52;;;;;;;54.47;49.93;;;13.80;99.90;;;;;;4991798;28;20527;-74
2023/05/16 06:48:18;;;;;;;41.70;38.10;;;13.90;99.90;;;;;;4991138;28;20212;-74
2023/05/16 06:50:52;;;;;;;42.40;38.60;;;13.80;99.90;;;;;;4991578;28;20761;-72
2023/05/16 06:53:18;;;;;;;39.90;36.37;;;13.70;99.90;;;;;;4991521;28;20267;-71
2023/05/16 06:55:44;;;;;;;43.27;39.07;;;13.60;99.90;;;;;;4991565;28;20267;-72
2023/05/16 06:58:10;;;;;;;53.63;47.97;;;13.60;99.90;;;;;;4991007;28;20271;-73
2023/05/16 07:00:36;;;;;;;46.67;42.77;;;13.60;99.90;;;;;;4991531;28;20215;-73
2023/05/16 07:03:03;;;;;;;36.40;33.20;;;13.60;99.90;;;;;;4992228;28;20188;-74
2023/05/16 07:05:29;;;;;;;36.80;33.70;;;13.70;99.90;;;;;;4992277;28;20227;-73
2023/05/16 07:07:55;;;;;;;36.40;33.10;;;13.80;99.90;;;;;;4989757;28;20267;-74
2023/05/16 07:10:21;;;;;;;38.43;35.33;;;14.00;99.90;;;;;;4991003;28;20636;-72
2023/05/16 07:12:47;;;;;;;26.80;24.50;;;14.20;99.90;;;;;;4992426;28;20176;-72
2023/05/16 07:15:13;;;;;;;25.60;23.20;;;14.20;99.90;;;;;;4992016;28;20239;-72
2023/05/16 07:17:39;;;;;;;26.70;24.10;;;14.50;99.90;;;;;;4991172;28;20262;-72
2023/05/16 07:20:07;;;;;;;20.03;16.03;;;14.60;99.90;;;;;;4990318;28;20188;-73
2023/05/16 07:22:32;;;;;;;18.43;14.33;;;14.70;99.90;;;;;;4991334;28;20206;-71
2023/05/16 07:24:59;;;;;;;18.63;16.73;;;14.80;99.90;;;;;;4990903;28;20378;-71
2023/05/16 07:27:28;;;;;;;19.03;16.87;;;14.80;99.90;;;;;;4989489;28;20556;-71
2023/05/16 07:29:53;;;;;;;17.27;15.57;;;14.70;99.90;;;;;;4990013;28;20235;-71
2023/05/16 07:32:19;;;;;;;16.43;14.10;;;14.70;99.90;;;;;;4989963;28;20200;-73
2023/05/16 07:34:45;;;;;;;19.97;14.40;;;14.80;99.90;;;;;;4989916;28;20231;-73
2023/05/16 07:37:12;;;;;;;17.13;14.63;;;14.80;99.90;;;;;;4993608;28;20232;-73
2023/05/16 07:39:39;;;;;;;17.53;15.73;;;14.90;99.90;;;;;;4994338;28;20184;-71
2023/05/16 07:42:08;;;;;;;18.40;16.60;;;14.90;99.90;;;;;;4994766;28;20245;-72
2023/05/16 07:44:34;;;;;;;17.30;15.63;;;14.90;99.90;;;;;;4994714;28;20204;-71
2023/05/16 07:47:00;;;;;;;17.43;15.80;;;14.70;99.90;;;;;;4994591;28;20191;-71
2023/05/16 07:49:26;;;;;;;16.93;15.27;;;14.50;99.90;;;;;;4994402;28;20212;-71
2023/05/16 07:51:52;;;;;;;16.93;15.23;;;14.50;99.90;;;;;;4993157;28;20688;-72
2023/05/16 07:54:18;;;;;;;16.57;14.53;;;14.40;99.90;;;;;;4993179;28;20243;-72
2023/05/16 07:56:44;;;;;;;16.00;14.40;;;14.40;99.90;;;;;;4994780;28;20593;-72
2023/05/16 07:59:10;;;;;;;17.57;14.10;;;14.40;99.90;;;;;;5004287;28;20211;-71
2023/05/16 08:01:36;;;;;;;15.73;13.97;;;14.40;99.90;;;;;;5001529;28;20779;-71
2023/05/16 08:04:02;;;;;;;16.73;15.03;;;14.40;99.90;;;;;;4995040;28;20287;-71
2023/05/16 08:06:28;;;;;;;16.03;14.43;;;14.40;99.90;;;;;;4994386;28;20188;-72
2023/05/16 08:08:54;;;;;;;15.87;14.20;;;14.30;99.90;;;;;;4992549;28;20211;-71
2023/05/16 08:11:21;;;;;;;14.43;12.80;;;14.30;99.90;;;;;;4994192;28;20210;-71
2023/05/16 08:13:48;;;;;;;14.90;13.47;;;14.20;99.90;;;;;;4994239;28;20188;-72
2023/05/16 08:16:14;;;;;;;15.67;14.17;;;14.10;99.90;;;;;;4994211;28;20238;-71
2023/05/16 08:18:41;;;;;;;15.77;14.20;;;14.10;99.90;;;;;;4993675;28;20176;-71
2023/05/16 08:21:08;;;;;;;15.03;13.27;;;14.10;99.90;;;;;;4992505;28;20220;-72
2023/05/16 08:23:35;;;;;;;15.07;13.63;;;14.10;99.90;;;;;;4992979;28;20192;-72
2023/05/16 08:26:01;;;;;;;15.47;13.47;;;14.10;99.90;;;;;;4993753;28;20191;-72
2023/05/16 08:28:28;;;;;;;15.87;13.97;;;14.10;99.90;;;;;;4993502;28;20208;-71
2023/05/16 08:30:54;;;;;;;14.57;13.20;;;14.00;99.90;;;;;;4993836;28;20215;-71
2023/05/16 08:33:20;;;;;;;16.13;13.60;;;14.00;99.90;;;;;;4993844;28;20184;-72
2023/05/16 08:35:47;;;;;;;13.93;12.63;;;14.00;99.90;;;;;;4993304;28;20561;-71
2023/05/16 08:38:13;;;;;;;13.67;12.33;;;13.90;99.90;;;;;;4992117;28;20237;-71
2023/05/16 08:40:39;;;;;;;12.67;11.57;;;13.80;99.90;;;;;;4993566;28;20291;-71
2023/05/16 08:43:06;;;;;;;14.10;12.80;;;13.80;99.90;;;;;;4992365;28;20184;-71
2023/05/16 08:45:32;;;;;;;13.27;12.17;;;13.70;99.90;;;;;;4993451;28;20212;-72
2023/05/16 08:48:00;;;;;;;13.47;11.93;;;13.70;99.90;;;;;;4991469;28;20571;-71
2023/05/16 08:50:30;;;;;;;12.87;11.63;;;13.80;99.90;;;;;;4993414;28;20173;-72
2023/05/16 08:52:56;;;;;;;13.87;12.47;;;13.70;99.90;;;;;;4993825;28;20184;-72
2023/05/16 08:55:25;;;;;;;14.20;12.97;;;13.80;99.90;;;;;;4993744;28;20663;-72
2023/05/16 08:57:53;;;;;;;13.40;12.10;;;13.80;99.90;;;;;;4992918;28;20215;-72
2023/05/16 09:00:20;;;;;;;13.70;12.23;;;13.80;99.90;;;;;;4992739;28;20605;-71
2023/05/16 09:02:46;;;;;;;12.90;11.60;;;13.80;99.90;;;;;;4992832;28;20194;-73
2023/05/16 09:05:14;;;;;;;15.17;12.93;;;13.90;99.90;;;;;;4991773;28;20267;-71
2023/05/16 09:07:40;;;;;;;13.90;12.60;;;13.90;99.90;;;;;;4992626;28;20215;-71
2023/05/16 09:10:09;;;;;;;13.90;12.60;;;14.00;99.90;;;;;;4992840;28;20211;-71
2023/05/16 09:12:36;;;;;;;13.23;11.90;;;14.10;99.90;;;;;;4992042;28;20551;-71
2023/05/16 09:15:06;;;;;;;12.30;10.80;;;14.10;99.90;;;;;;4992954;28;20203;-71
2023/05/16 09:17:41;;;;;;;13.70;12.50;;;14.30;99.90;;;;;;4992466;28;20238;-71
2023/05/16 09:20:19;;;;;;;14.07;12.80;;;14.30;99.90;;;;;;4992803;28;20187;-71
2023/05/16 09:22:54;;;;;;;16.67;15.17;;;14.40;99.90;;;;;;4993051;28;20667;-72
2023/05/16 09:25:21;;;;;;;15.97;14.40;;;14.40;99.90;;;;;;4991352;28;20190;-71
2023/05/16 09:27:51;;;;;;;18.27;16.60;;;14.60;99.90;;;;;;4992184;28;20208;-71
2023/05/16 09:30:27;;;;;;;15.43;13.97;;;14.80;99.90;;;;;;4992195;28;20177;-71
2023/05/16 09:32:53;;;;;;;14.00;12.67;;;14.90;99.90;;;;;;4992466;28;20222;-71
2023/05/16 09:35:20;;;;;;;18.03;16.60;;;14.90;99.90;;;;;;4992378;28;20645;-73
2023/05/16 09:37:47;;;;;;;19.00;17.60;;;14.90;99.90;;;;;;4990936;28;20598;-71
2023/05/16 09:40:14;;;;;;;22.90;20.93;;;14.90;99.90;;;;;;4992211;28;20195;-72
2023/05/16 09:42:42;;;;;;;26.57;24.53;;;14.90;99.90;;;;;;4991330;28;20176;-72
2023/05/16 09:45:12;;;;;;;22.27;20.47;;;14.70;99.90;;;;;;4992210;28;20184;-71
2023/05/16 09:47:45;;;;;;;17.90;16.30;;;14.50;99.90;;;;;;4991857;28;20244;-72
2023/05/16 09:50:14;;;;;;;14.33;12.93;;;14.50;99.90;;;;;;4992221;28;20223;-72
2023/05/16 09:52:42;;;;;;;17.73;16.23;;;14.60;99.90;;;;;;4993374;28;20211;-72
2023/05/16 09:55:08;;;;;;;17.30;15.87;;;14.70;99.90;;;;;;4991769;28;20191;-72
2023/05/16 09:57:38;;;;;;;14.37;12.63;;;14.80;99.90;;;;;;4991427;28;20283;-72
2023/05/16 10:00:10;;;;;;;21.90;20.27;;;14.90;99.90;;;;;;4992627;28;20176;-72
2023/05/16 10:02:38;;;;;;;27.03;24.93;;;14.80;99.90;;;;;;4992333;28;20590;-72
2023/05/16 10:05:05;;;;;;;20.73;18.83;;;14.70;99.90;;;;;;4991872;28;20215;-72
2023/05/16 10:07:33;;;;;;;17.53;15.73;;;14.60;99.90;;;;;;4992238;28;20731;-71
2023/05/16 10:10:06;;;;;;;25.07;22.33;;;14.60;99.90;;;;;;4991086;28;20652;-72
2023/05/16 10:12:33;;;;;;;20.30;17.50;;;14.70;99.90;;;;;;4992370;28;20197;-72
2023/05/16 10:15:04;;;;;;;18.77;13.47;;;14.60;99.90;;;;;;4992368;28;20593;-72
2023/05/16 10:17:33;;;;;;;14.40;12.97;;;14.50;99.90;;;;;;4991791;28;20184;-72
2023/05/16 10:20:08;;;;;;;14.00;12.33;;;14.50;99.90;;;;;;4991910;28;20255;-72
2023/05/16 10:22:34;;;;;;;15.77;12.50;;;14.70;99.90;;;;;;4990396;28;20214;-72
2023/05/16 10:25:08;;;;;;;18.77;16.80;;;14.90;99.90;;;;;;4990481;28;20592;-73
2023/05/16 10:27:35;;;;;;;26.20;24.07;;;15.10;99.90;;;;;;4991246;28;20269;-72
2023/05/16 10:30:01;;;;;;;30.40;28.10;;;15.30;99.90;;;;;;4990504;28;20176;-72
2023/05/16 10:32:28;;;;;;;28.37;26.13;;;15.50;99.90;;;;;;4991675;28;20212;-72
2023/05/16 10:34:57;;;;;;;27.87;25.70;;;15.70;99.90;;;;;;4991730;28;20187;-72
2023/05/16 10:37:24;;;;;;;32.43;30.10;;;16.10;99.90;;;;;;4989950;28;20187;-72
2023/05/16 10:39:50;;;;;;;36.60;33.93;;;16.30;99.90;;;;;;4991423;28;20219;-72
2023/05/16 10:42:17;;;;;;;52.73;49.50;;;16.50;99.90;;;;;;4990598;28;20676;-72
2023/05/16 10:44:43;;;;;;;57.50;54.00;;;16.30;99.90;;;;;;4991656;28;20176;-73
2023/05/16 10:47:08;;;;;;;53.27;49.83;;;16.10;99.90;;;;;;4991339;28;20910;-72
2023/05/16 10:49:39;;;;;;;55.90;52.40;;;16.20;99.90;;;;;;4991583;28;20204;-72
2023/05/16 10:52:08;;;;;;;55.10;51.70;;;16.20;99.90;;;;;;4992113;28;20247;-73
2023/05/16 10:54:36;;;;;;;58.83;55.23;;;16.20;99.90;;;;;;4992013;28;20322;-72
2023/05/16 10:57:07;;;;;;;58.73;55.27;;;16.10;99.90;;;;;;4991544;28;20734;-73
2023/05/16 11:00:00;;;;;;;63.20;59.10;;;15.90;99.90;;;;;;4991660;28;20263;-72
2023/05/16 11:02:34;;;;;;;45.20;42.20;;;15.70;99.90;;;;;;4989175;28;20224;-72
2023/05/16 11:05:01;;;;;;;30.90;28.47;;;15.40;99.90;;;;;;4992059;28;20184;-72
2023/05/16 11:07:33;;;;;;;27.90;25.53;;;15.20;99.90;;;;;;4990882;28;20180;-72
2023/05/16 11:10:07;;;;;;;29.00;26.80;;;15.20;99.90;;;;;;4991955;28;20192;-73
2023/05/16 11:12:48;;;;;;;28.37;26.13;;;15.10;99.90;;;;;;4994135;28;20239;-72
2023/05/16 11:15:18;;;;;;;26.97;24.90;;;15.20;99.90;;;;;;4995168;28;20715;-72
2023/05/16 11:17:44;;;;;;;29.47;27.20;;;15.30;99.90;;;;;;4993508;28;20191;-74
2023/05/16 11:20:25;;;;;;;24.97;22.87;;;15.30;99.90;;;;;;4994926;28;20200;-73
2023/05/16 11:23:15;;;;;;;23.57;21.57;;;15.30;99.90;;;;;;4993597;28;20187;-71
2023/05/16 11:25:44;;;;;;;22.57;20.87;;;15.10;99.90;;;;;;4994811;28;20652;-72
2023/05/16 11:28:11;;;;;;;22.97;21.27;;;15.00;99.90;;;;;;4994579;28;20212;-72
2023/05/16 11:30:55;;;;;;;21.73;19.80;;;14.80;99.90;;;;;;4995037;28;20228;-72
2023/05/16 11:33:21;;;;;;;14.80;13.50;;;14.70;99.90;;;;;;4995007;28;20267;-72
2023/05/16 11:36:07;;;;;;;15.07;13.10;;;14.50;99.90;;;;;;4993506;28;20180;-71
2023/05/16 11:38:34;;;;;;;14.47;13.10;;;14.40;99.90;;;;;;4993911;28;20184;-71
2023/05/16 11:41:07;;;;;;;16.47;14.83;;;14.50;99.90;;;;;;4994816;28;20718;-72
2023/05/16 11:43:44;;;;;;;20.07;17.13;;;14.50;99.90;;;;;;4994950;28;20276;-74
2023/05/16 11:46:15;;;;;;;20.23;16.20;;;14.50;99.90;;;;;;4994493;28;20199;-73
2023/05/16 11:48:41;;;;;;;21.83;17.27;;;14.40;99.90;;;;;;4993070;28;21019;-73
2023/05/16 11:51:08;;;;;;;21.20;15.33;;;14.40;99.90;;;;;;4994350;28;20204;-73
2023/05/16 11:53:36;;;;;;;21.03;18.97;;;14.40;99.90;;;;;;4994493;28;20180;-72
2023/05/16 11:56:03;;;;;;;21.47;19.27;;;14.30;99.90;;;;;;4993228;28;20279;-70
2023/05/16 11:58:28;;;;;;;22.50;17.13;;;14.20;99.90;;;;;;4992873;28;20564;-72
2023/05/16 12:00:54;;;;;;;17.63;14.73;;;14.20;99.90;;;;;;4993972;28;20219;-72
2023/05/16 12:03:22;;;;;;;16.53;14.17;;;14.30;99.90;;;;;;4993965;28;20181;-72
2023/05/16 12:05:56;;;;;;;19.53;16.07;;;14.40;99.90;;;;;;4994201;28;20181;-72
2023/05/16 12:08:23;;;;;;;20.17;14.47;;;14.30;99.90;;;;;;4992601;28;20204;-72
2023/05/16 12:10:50;;;;;;;15.47;13.80;;;14.30;99.90;;;;;;4993912;28;20707;-72
2023/05/16 12:13:18;;;;;;;14.93;12.77;;;14.30;99.90;;;;;;4994095;28;20620;-73
2023/05/16 12:15:44;;;;;;;15.40;13.80;;;14.20;99.90;;;;;;4994265;28;20659;-73
2023/05/16 12:18:10;;;;;;;14.97;13.43;;;14.20;99.90;;;;;;4993670;28;20220;-73
2023/05/16 12:20:36;;;;;;;16.20;12.70;;;14.10;99.90;;;;;;4993160;28;20220;-73
2023/05/16 12:23:03;;;;;;;15.87;14.17;;;14.10;99.90;;;;;;4993510;28;20557;-72
2023/05/16 12:25:30;;;;;;;15.67;14.07;;;14.00;99.90;;;;;;4994534;28;20192;-73
2023/05/16 12:28:01;;;;;;;18.37;14.90;;;13.80;99.90;;;;;;4992775;28;20212;-72
2023/05/16 12:30:29;;;;;;;21.37;19.57;;;13.60;99.90;;;;;;4994344;28;20735;-72
2023/05/16 12:32:59;;;;;;;40.47;37.60;;;13.60;99.90;;;;;;4993976;28;20177;-73
2023/05/16 12:35:29;;;;;;;34.43;32.13;;;13.60;99.90;;;;;;4994624;28;20620;-72
2023/05/16 12:37:55;;;;;;;42.17;39.47;;;13.60;99.90;;;;;;4992785;28;20181;-72
2023/05/16 12:40:22;;;;;;;42.60;39.70;;;13.50;99.90;;;;;;4993609;28;20181;-72
2023/05/16 12:42:52;;;;;;;41.27;38.50;;;13.50;99.90;;;;;;4993937;28;20196;-73
2023/05/16 12:45:18;;;;;;;40.53;37.63;;;13.50;99.90;;;;;;4993199;28;20263;-73
2023/05/16 12:47:45;;;;;;;42.43;39.53;;;13.60;99.90;;;;;;4993136;28;20311;-72
2023/05/16 12:50:13;;;;;;;36.87;34.07;;;13.60;99.90;;;;;;4993921;28;20176;-72
2023/05/16 12:52:53;;;;;;;28.93;26.73;;;13.60;99.90;;;;;;4993772;28;20230;-73
2023/05/16 12:55:21;;;;;;;17.73;16.17;;;13.60;99.90;;;;;;4994653;28;20553;-73
2023/05/16 12:57:47;;;;;;;14.20;12.70;;;13.70;99.90;;;;;;4993717;28;20183;-73
2023/05/16 13:00:15;;;;;;;16.67;14.87;;;13.60;99.90;;;;;;4991752;28;20185;-72
2023/05/16 13:02:41;;;;;;;16.67;14.90;;;13.70;99.90;;;;;;4992104;28;20184;-71
2023/05/16 13:05:07;;;;;;;14.93;13.37;;;13.70;99.90;;;;;;4992389;28;20267;-73
2023/05/16 13:07:34;;;;;;;13.53;12.13;;;13.70;99.90;;;;;;4991984;28;20184;-71
2023/05/16 13:10:00;;;;;;;11.63;10.50;;;13.80;99.90;;;;;;4993222;28;20184;-71
2023/05/16 13:12:27;;;;;;;11.87;10.77;;;13.80;99.90;;;;;;4992991;28;20192;-71
2023/05/16 13:14:53;;;;;;;13.57;10.87;;;13.80;99.90;;;;;;4992828;28;20185;-71
2023/05/16 13:17:18;;;;;;;13.10;11.77;;;13.90;99.90;;;;;;4991423;28;20181;-72
2023/05/16 13:19:44;;;;;;;11.97;10.87;;;14.00;99.90;;;;;;4992629;28;20192;-72
2023/05/16 13:22:10;;;;;;;12.23;10.70;;;14.00;99.90;;;;;;4992867;28;20196;-72
2023/05/16 13:24:36;;;;;;;9.67;8.60;;;14.10;99.90;;;;;;4991538;28;20184;-72
2023/05/16 13:27:02;;;;;;;11.20;10.10;;;14.10;99.90;;;;;;4992146;28;20184;-72
2023/05/16 13:29:28;;;;;;;11.63;10.53;;;14.20;99.90;;;;;;4992725;28;20242;-71
2023/05/16 13:31:54;;;;;;;12.10;11.00;;;14.20;99.90;;;;;;4992332;28;20284;-70
2023/05/16 13:34:19;;;;;;;12.17;11.17;;;14.10;99.90;;;;;;4991073;28;20194;-71
2023/05/16 13:36:46;;;;;;;12.07;11.17;;;14.10;99.90;;;;;;4992335;28;20251;-72
2023/05/16 13:39:12;;;;;;;13.03;11.97;;;14.20;99.90;;;;;;4990929;28;20188;-71
2023/05/16 13:41:39;;;;;;;11.00;10.20;;;14.30;99.90;;;;;;4992408;28;20231;-72
2023/05/16 13:44:05;;;;;;;12.37;10.37;;;14.30;99.90;;;;;;4991458;28;20219;-71
2023/05/16 13:46:31;;;;;;;9.70;8.80;;;14.30;99.90;;;;;;4991986;28;20618;-72
2023/05/16 13:48:57;;;;;;;8.33;7.70;;;14.30;99.90;;;;;;4991677;28;20262;-72
2023/05/16 13:51:23;;;;;;;9.10;7.47;;;14.40;99.90;;;;;;4992322;28;20232;-72
2023/05/16 13:53:49;;;;;;;7.63;6.93;;;14.50;99.90;;;;;;4992314;28;20172;-72
2023/05/16 13:56:15;;;;;;;12.63;11.33;;;14.50;99.90;;;;;;4992150;28;20188;-72
2023/05/16 13:58:41;;;;;;;9.00;8.13;;;14.20;99.90;;;;;;4990437;28;20186;-70
2023/05/16 14:01:06;;;;;;;11.67;10.67;;;14.00;99.90;;;;;;4990518;28;20696;-71
2023/05/16 14:03:35;;;;;;;11.53;9.83;;;13.70;99.90;;;;;;4991962;28;20682;-71
2023/05/16 14:06:01;;;;;;;7.17;6.67;;;13.60;99.90;;;;;;4992237;28;20187;-72
2023/05/16 14:08:26;;;;;;;6.00;5.53;;;13.60;99.90;;;;;;4991647;28;20204;-71
2023/05/16 14:10:52;;;;;;;5.93;5.53;;;13.60;99.90;;;;;;4992082;28;20214;-71
2023/05/16 14:13:18;;;;;;;8.27;7.77;;;13.90;99.90;;;;;;4991835;28;20215;-72
2023/05/16 14:15:44;;;;;;;8.07;7.40;;;14.00;99.90;;;;;;4990171;28;20177;-71
2023/05/16 14:18:10;;;;;;;6.57;6.17;;;14.00;99.90;;;;;;4991832;28;20188;-72
2023/05/16 14:20:36;;;;;;;6.67;6.17;;;14.10;99.90;;;;;;4990355;28;20308;-72
2023/05/16 14:23:02;;;;;;;6.53;6.03;;;14.10;99.90;;;;;;4992241;28;20280;-72
2023/05/16 14:25:28;;;;;;;7.23;5.87;;;14.10;99.90;;;;;;4992095;28;20191;-71
2023/05/16 14:27:54;;;;;;;6.00;5.50;;;14.00;99.90;;;;;;4990104;28;20216;-71
2023/05/16 14:30:20;;;;;;;5.83;5.43;;;14.00;99.90;;;;;;4990063;28;20180;-71
2023/05/16 14:32:46;;;;;;;7.90;7.37;;;13.80;99.90;;;;;;4996766;28;20179;-71
2023/05/16 14:35:12;;;;;;;7.93;7.43;;;13.70;99.90;;;;;;5012257;28;20190;-71
2023/05/16 14:37:37;;;;;;;8.37;7.87;;;13.80;99.90;;;;;;5010882;28;20601;-71
2023/05/16 14:40:04;;;;;;;8.03;7.33;;;13.90;99.90;;;;;;5011385;28;20191;-71
2023/05/16 14:42:31;;;;;;;6.90;6.17;;;14.00;99.90;;;;;;5010118;28;20199;-72
2023/05/16 14:44:57;;;;;;;6.63;6.13;;;14.10;99.90;;;;;;4993331;28;20180;-71
2023/05/16 14:47:23;;;;;;;7.43;6.93;;;14.20;99.90;;;;;;4995472;28;20215;-71
2023/05/16 14:49:48;;;;;;;6.97;6.37;;;14.30;99.90;;;;;;4994581;28;20212;-71
2023/05/16 14:52:14;;;;;;;6.83;6.23;;;14.50;99.90;;;;;;4994443;28;20199;-71
2023/05/16 14:54:40;;;;;;;11.47;10.77;;;14.60;99.90;;;;;;4994332;28;20601;-72
2023/05/16 14:57:06;;;;;;;24.63;23.10;;;14.80;99.90;;;;;;4994994;28;20184;-73
2023/05/16 14:59:32;;;;;;;21.07;19.97;;;14.90;99.90;;;;;;4995159;28;20195;-71
2023/05/16 15:01:58;;;;;;;19.87;18.83;;;14.90;99.90;;;;;;4993887;28;20584;-71
2023/05/16 15:04:26;;;;;;;17.60;16.57;;;15.00;99.90;;;;;;4995272;28;20195;-71
2023/05/16 15:06:52;;;;;;;15.17;14.17;;;15.00;99.90;;;;;;4994956;28;20193;-71
2023/05/16 15:09:19;;;;;;;16.27;15.27;;;14.70;99.90;;;;;;4995199;28;20231;-70
2023/05/16 15:11:45;;;;;;;23.10;21.43;;;14.40;99.90;;;;;;4993999;28;20207;-70
2023/05/16 15:14:11;;;;;;;14.47;13.60;;;14.10;99.90;;;;;;5016771;23;20315;-71
2023/05/16 15:16:36;;;;;;;6.53;6.13;;;13.90;99.90;;;;;;5007428;28;20239;-71
2023/05/16 15:19:02;;;;;;;6.37;5.97;;;13.80;99.90;;;;;;4999388;28;20777;-71
2023/05/16 15:21:30;;;;;;;7.00;6.53;;;13.80;99.90;;;;;;4994022;28;20199;-71
2023/05/16 15:23:56;;;;;;;7.27;6.77;;;13.80;99.90;;;;;;4995160;28;20258;-71
2023/05/16 15:26:21;;;;;;;6.53;5.97;;;13.70;99.90;;;;;;4994827;28;20602;-72
2023/05/16 15:28:47;;;;;;;6.37;6.00;;;13.80;99.90;;;;;;4994667;28;20206;-70
2023/05/16 15:31:13;;;;;;;5.87;5.47;;;13.80;99.90;;;;;;4995048;28;20184;-71